createdAt,value
2024-05-09T00:00:42.411Z,9.63
2024-05-09T00:03:11.933Z,9.59
2024-05-09T00:05:41.237Z,9.54
2024-05-09T00:08:10.260Z,9.50
2024-05-09T00:10:39.606Z,9.49
2024-05-09T00:13:09.111Z,9.44
2024-05-09T00:15:37.520Z,9.38
2024-05-09T00:18:07.280Z,9.33
2024-05-09T00:20:39.588Z,9.29
2024-05-09T00:23:12.073Z,9.27
2024-05-09T00:25:42.840Z,9.21
2024-05-09T00:28:12.288Z,9.15
2024-05-09T00:30:40.726Z,9.11
2024-05-09T00:33:10.288Z,9.07
2024-05-09T00:35:39.807Z,9.02
2024-05-09T00:38:08.218Z,8.94
2024-05-09T00:40:40.283Z,8.86
2024-05-09T00:43:11.720Z,8.81
2024-05-09T00:45:40.295Z,8.79
2024-05-09T00:48:09.575Z,8.76
2024-05-09T00:50:41.213Z,8.69
2024-05-09T00:53:13.922Z,8.63
2024-05-09T00:55:41.778Z,8.53
2024-05-09T00:58:12.429Z,8.47
2024-05-09T01:00:41.425Z,8.41
2024-05-09T01:03:12.119Z,8.36
2024-05-09T01:05:43.202Z,8.32
2024-05-09T01:08:11.805Z,8.30
2024-05-09T01:10:43.749Z,8.29
2024-05-09T01:13:13.256Z,8.28
2024-05-09T01:15:41.110Z,8.24
2024-05-09T01:18:11.048Z,8.22
2024-05-09T01:20:43.211Z,8.18
2024-05-09T01:23:14.736Z,8.18
2024-05-09T01:25:44.992Z,8.16
2024-05-09T01:28:13.607Z,8.13
2024-05-09T01:30:41.362Z,8.09
2024-05-09T01:33:10.887Z,8.08
2024-05-09T01:35:42.085Z,8.09
2024-05-09T01:38:13.797Z,8.10
2024-05-09T01:40:43.411Z,8.10
2024-05-09T01:43:12.087Z,8.11
2024-05-09T01:45:40.918Z,8.12
2024-05-09T01:48:09.823Z,8.13
2024-05-09T01:50:41.519Z,8.13
2024-05-09T01:53:12.181Z,8.13
2024-05-09T01:55:40.169Z,8.13
2024-05-09T01:58:08.634Z,8.13
2024-05-09T02:00:42.307Z,8.13
2024-05-09T02:03:15.432Z,8.12
2024-05-09T02:05:47.053Z,8.11
2024-05-09T02:08:17.620Z,8.12
2024-05-09T02:10:47.596Z,8.11
2024-05-09T02:13:16.630Z,8.10
2024-05-09T02:15:44.769Z,8.09
2024-05-09T02:18:13.639Z,8.08
2024-05-09T02:20:43.063Z,8.07
2024-05-09T02:23:11.994Z,8.05
2024-05-09T02:25:41.209Z,8.03
2024-05-09T02:28:09.313Z,8.02
2024-05-09T02:30:40.726Z,8.02
2024-05-09T02:33:12.299Z,8.02
2024-05-09T02:35:43.468Z,7.99
2024-05-09T02:38:12.928Z,7.97
2024-05-09T02:40:41.450Z,7.96
2024-05-09T02:43:11.118Z,7.95
2024-05-09T02:45:40.570Z,7.95
2024-05-09T02:48:13.205Z,7.95
2024-05-09T02:50:44.272Z,7.96
2024-05-09T02:53:13.306Z,7.97
2024-05-09T02:55:41.923Z,7.97
2024-05-09T02:58:10.511Z,7.97
2024-05-09T03:00:41.623Z,7.96
2024-05-09T03:03:13.291Z,7.96
2024-05-09T03:05:46.487Z,7.96
2024-05-09T03:08:15.091Z,7.96
2024-05-09T03:10:43.398Z,7.96
2024-05-09T03:13:13.804Z,7.98
2024-05-09T03:15:44.704Z,8.00
2024-05-09T03:18:13.422Z,8.01
2024-05-09T03:20:43.980Z,8.03
2024-05-09T03:23:12.575Z,8.02
2024-05-09T03:25:40.714Z,8.05
2024-05-09T03:28:08.656Z,8.07
2024-05-09T03:30:41.785Z,8.10
2024-05-09T03:33:13.832Z,8.11
2024-05-09T03:35:45.783Z,8.14
2024-05-09T03:38:13.706Z,8.17
2024-05-09T03:40:49.593Z,8.22
2024-05-09T03:43:19.017Z,8.28
2024-05-09T03:45:49.999Z,8.34
2024-05-09T03:48:18.062Z,8.39
2024-05-09T03:50:46.279Z,8.45
2024-05-09T03:53:14.512Z,8.52
2024-05-09T03:55:42.608Z,8.61
2024-05-09T03:58:12.955Z,8.71
2024-05-09T04:00:42.357Z,8.85
2024-05-09T04:03:12.246Z,9.02
2024-05-09T04:05:42.683Z,9.20
2024-05-09T04:08:15.250Z,9.43
2024-05-09T04:10:43.836Z,9.73
2024-05-09T04:13:11.859Z,9.99
2024-05-09T04:15:39.742Z,10.15
2024-05-09T04:18:07.821Z,10.26
2024-05-09T04:20:39.556Z,10.34
2024-05-09T04:23:13.839Z,10.41
2024-05-09T04:25:44.200Z,10.47
2024-05-09T04:28:12.856Z,10.49
2024-05-09T04:30:41.990Z,10.56
2024-05-09T04:33:12.940Z,10.65
2024-05-09T04:35:43.078Z,10.71
2024-05-09T04:38:15.579Z,10.75
2024-05-09T04:40:44.370Z,10.78
2024-05-09T04:43:17.355Z,10.82
2024-05-09T04:45:45.811Z,10.87
2024-05-09T04:48:15.196Z,10.93
2024-05-09T04:50:44.653Z,11.01
2024-05-09T04:53:16.238Z,11.13
2024-05-09T04:55:44.269Z,11.29
2024-05-09T04:58:12.497Z,11.45
2024-05-09T05:00:41.551Z,11.57
2024-05-09T05:03:14.055Z,11.74
2024-05-09T05:05:45.222Z,11.96
2024-05-09T05:08:15.439Z,12.22
2024-05-09T05:10:43.983Z,12.44
2024-05-09T05:13:23.768Z,12.57
2024-05-09T05:15:57.493Z,12.65
2024-05-09T05:18:27.399Z,12.77
2024-05-09T05:20:56.484Z,12.86
2024-05-09T05:23:24.774Z,12.94
2024-05-09T05:25:55.473Z,13.08
2024-05-09T05:28:24.071Z,13.25
2024-05-09T05:30:51.989Z,13.43
2024-05-09T05:33:23.171Z,13.55
2024-05-09T05:35:51.779Z,13.63
2024-05-09T05:38:23.724Z,13.66
2024-05-09T05:40:54.173Z,13.64
2024-05-09T05:43:22.057Z,13.65
2024-05-09T05:45:50.135Z,13.67
2024-05-09T05:48:18.531Z,13.71
2024-05-09T05:50:47.016Z,13.74
2024-05-09T05:53:14.992Z,13.77
2024-05-09T05:55:42.961Z,13.78
2024-05-09T05:58:11.550Z,13.83
2024-05-09T06:00:41.207Z,13.85
2024-05-09T06:03:10.752Z,13.85
2024-05-09T06:05:46.897Z,13.87
2024-05-09T06:08:15.366Z,13.86
2024-05-09T06:10:43.283Z,13.86
2024-05-09T06:13:13.131Z,13.87
2024-05-09T06:15:42.063Z,13.93
2024-05-09T06:18:12.082Z,14.01
2024-05-09T06:20:41.888Z,14.10
2024-05-09T06:23:11.067Z,14.21
2024-05-09T06:25:39.158Z,14.34
2024-05-09T06:28:07.166Z,14.47
2024-05-09T06:30:42.368Z,14.55
2024-05-09T06:33:16.092Z,14.64
2024-05-09T06:35:46.201Z,14.76
2024-05-09T06:38:14.637Z,14.88
2024-05-09T06:40:44.113Z,15.00
2024-05-09T06:43:14.062Z,15.14
2024-05-09T06:45:42.612Z,15.18
2024-05-09T06:48:10.798Z,15.21
2024-05-09T06:50:40.159Z,15.24
2024-05-09T06:53:09.436Z,15.27
2024-05-09T06:55:38.100Z,15.28
2024-05-09T06:58:06.724Z,15.37
2024-05-09T07:00:39.522Z,15.48
2024-05-09T07:03:15.853Z,15.58
2024-05-09T07:05:47.359Z,15.66
2024-05-09T07:08:18.004Z,15.74
2024-05-09T07:10:52.430Z,15.82
2024-05-09T07:13:20.577Z,15.87
2024-05-09T07:15:48.641Z,15.94
2024-05-09T07:18:18.302Z,15.99
2024-05-09T07:20:48.062Z,16.03
2024-05-09T07:23:17.021Z,16.06
2024-05-09T07:25:45.886Z,16.12
2024-05-09T07:28:15.802Z,16.22
2024-05-09T07:30:46.795Z,16.34
2024-05-09T07:33:16.719Z,16.46
2024-05-09T07:35:44.752Z,16.57
2024-05-09T07:38:13.520Z,16.63
2024-05-09T07:40:42.115Z,16.69
2024-05-09T07:43:16.430Z,16.81
2024-05-09T07:45:51.808Z,16.91
2024-05-09T07:52:38.363Z,17.02
2024-05-09T07:53:47.155Z,16.98
2024-05-09T07:56:21.613Z,16.92
2024-05-09T07:58:52.027Z,17.00
2024-05-09T08:01:21.167Z,17.08
2024-05-09T08:03:50.769Z,17.14
2024-05-09T08:06:19.207Z,17.21
2024-05-09T08:08:47.477Z,17.23
2024-05-09T08:11:15.713Z,17.24
2024-05-09T08:13:43.718Z,17.32
2024-05-09T08:16:13.069Z,17.43
2024-05-09T08:18:41.131Z,17.48
2024-05-09T08:21:12.516Z,17.52
2024-05-09T08:23:43.125Z,17.55
2024-05-09T08:26:11.384Z,17.57
2024-05-09T08:28:39.173Z,17.60
2024-05-09T08:31:07.674Z,17.65
2024-05-09T08:33:36.459Z,17.71
2024-05-09T08:36:04.875Z,17.77
2024-05-09T08:38:32.916Z,17.84
2024-05-09T08:41:02.376Z,17.89
2024-05-09T08:43:30.848Z,17.93
2024-05-09T08:45:59.557Z,17.97
2024-05-09T08:48:27.928Z,18.06
2024-05-09T08:50:59.556Z,18.19
2024-05-09T08:53:27.502Z,18.33
2024-05-09T08:55:55.421Z,18.42
2024-05-09T08:58:23.620Z,18.46
2024-05-09T09:00:51.802Z,18.56
2024-05-09T09:03:20.864Z,18.72
2024-05-09T09:06:11.272Z,18.84
2024-05-09T09:08:39.342Z,18.89
2024-05-09T09:11:07.187Z,18.92
2024-05-09T09:13:35.190Z,18.94
2024-05-09T09:16:03.669Z,18.95
2024-05-09T09:18:32.955Z,19.02
2024-05-09T09:21:03.022Z,19.12
2024-05-09T09:23:31.287Z,19.25
2024-05-09T09:26:00.193Z,19.38
2024-05-09T09:28:28.148Z,19.49
2024-05-09T09:31:05.413Z,19.55
2024-05-09T09:33:36.141Z,19.62
2024-05-09T09:36:06.937Z,19.73
2024-05-09T09:38:36.896Z,19.76
2024-05-09T09:41:07.441Z,19.77
2024-05-09T09:43:36.260Z,19.84
2024-05-09T09:46:04.215Z,19.84
2024-05-09T09:48:32.890Z,19.87
2024-05-09T09:51:00.776Z,19.90
2024-05-09T09:53:29.297Z,19.95
2024-05-09T09:55:57.828Z,20.03
2024-05-09T09:58:25.785Z,20.09
2024-05-09T10:00:54.069Z,20.16
2024-05-09T10:03:22.161Z,20.18
2024-05-09T10:05:50.287Z,20.20
2024-05-09T10:08:18.427Z,20.26
2024-05-09T10:10:47.595Z,20.37
2024-05-09T10:13:16.403Z,20.54
2024-05-09T10:15:51.524Z,20.68
2024-05-09T10:18:28.059Z,20.90
2024-05-09T10:20:59.744Z,21.28
2024-05-09T10:23:28.888Z,21.68
2024-05-09T10:26:06.359Z,22.06
2024-05-09T10:28:37.107Z,22.42
2024-05-09T10:31:09.824Z,22.76
2024-05-09T10:33:52.234Z,23.05
2024-05-09T10:36:22.343Z,23.26
2024-05-09T10:38:50.742Z,23.18
2024-05-09T10:41:18.899Z,23.05
2024-05-09T10:43:47.424Z,22.89
2024-05-09T10:46:15.714Z,22.75
2024-05-09T10:48:44.619Z,22.52
2024-05-09T10:51:13.572Z,22.34
2024-05-09T10:53:47.871Z,22.24
2024-05-09T10:56:16.428Z,22.20
2024-05-09T10:58:45.190Z,22.17
2024-05-09T11:01:13.462Z,22.17
2024-05-09T11:03:41.974Z,22.26
2024-05-09T11:06:11.275Z,22.36
2024-05-09T11:08:39.360Z,22.46
2024-05-09T11:11:08.489Z,22.60
2024-05-09T11:13:38.198Z,22.71
2024-05-09T11:16:16.224Z,22.80
2024-05-09T11:18:44.535Z,22.82
2024-05-09T11:21:13.979Z,22.78
2024-05-09T11:23:42.870Z,22.75
2024-05-09T11:26:11.320Z,22.77
2024-05-09T11:28:39.253Z,22.77
2024-05-09T11:31:08.834Z,22.86
2024-05-09T11:33:47.698Z,22.96
2024-05-09T11:36:16.123Z,23.03
2024-05-09T11:38:44.004Z,23.10
2024-05-09T11:41:18.701Z,23.16
2024-05-09T11:43:47.356Z,23.21
2024-05-09T11:46:15.362Z,23.24
2024-05-09T11:48:43.760Z,23.30
2024-05-09T11:51:12.237Z,23.36
2024-05-09T11:53:40.428Z,23.38
2024-05-09T11:56:08.439Z,23.36
2024-05-09T11:58:38.450Z,23.35
2024-05-09T12:01:06.809Z,23.32
2024-05-09T12:03:35.172Z,23.36
2024-05-09T12:06:04.075Z,23.42
2024-05-09T12:08:32.663Z,23.43
2024-05-09T12:11:00.943Z,23.47
2024-05-09T12:13:31.999Z,23.51
2024-05-09T12:16:00.193Z,23.62
2024-05-09T12:18:28.614Z,23.81
2024-05-09T12:20:56.608Z,23.93
2024-05-09T12:23:24.620Z,24.06
2024-05-09T12:25:52.603Z,24.18
2024-05-09T12:28:20.686Z,24.22
2024-05-09T12:30:50.047Z,24.33
2024-05-09T12:33:19.845Z,24.47
2024-05-09T12:35:50.727Z,24.63
2024-05-09T12:38:19.201Z,24.84
2024-05-09T12:40:47.152Z,25.07
2024-05-09T12:43:15.353Z,25.23
2024-05-09T12:45:43.218Z,25.36
2024-05-09T12:48:12.543Z,25.41
2024-05-09T12:50:41.733Z,25.51
2024-05-09T12:53:10.510Z,25.51
2024-05-09T12:55:45.127Z,25.49
2024-05-09T12:58:24.757Z,25.52
2024-05-09T13:00:53.329Z,25.56
2024-05-09T13:03:22.243Z,25.59
2024-05-09T13:05:51.553Z,25.64
2024-05-09T13:08:20.142Z,25.75
2024-05-09T13:10:48.160Z,25.89
2024-05-09T13:13:16.786Z,26.05
2024-05-09T13:15:44.999Z,26.21
2024-05-09T13:18:13.373Z,26.37
2024-05-09T13:20:41.725Z,26.45
2024-05-09T13:23:09.822Z,26.48
2024-05-09T13:25:40.804Z,26.54
2024-05-09T13:28:09.286Z,26.64
2024-05-09T13:30:40.737Z,26.75
2024-05-09T13:33:11.856Z,26.87
2024-05-09T13:35:45.725Z,26.98
2024-05-09T13:38:21.294Z,27.12
2024-05-09T13:40:50.449Z,27.18
2024-05-09T13:43:19.294Z,27.26
2024-05-09T13:45:47.484Z,27.32
2024-05-09T13:48:15.527Z,27.42
2024-05-09T13:50:44.111Z,27.53
2024-05-09T13:53:12.101Z,27.59
2024-05-09T13:55:40.574Z,27.53
2024-05-09T13:58:09.445Z,27.50
2024-05-09T14:00:46.338Z,27.60
2024-05-09T14:03:18.696Z,27.64
2024-05-09T14:05:50.773Z,27.65
2024-05-09T14:08:20.073Z,27.50
2024-05-09T14:10:48.944Z,27.08
2024-05-09T14:13:17.291Z,26.43
2024-05-09T14:15:46.473Z,25.67
2024-05-09T14:18:14.789Z,24.92
2024-05-09T14:20:43.423Z,24.35
2024-05-09T14:23:11.482Z,23.88
2024-05-09T14:25:42.709Z,23.44
2024-05-09T14:28:12.851Z,23.10
2024-05-09T14:30:41.824Z,22.74
2024-05-09T14:33:10.382Z,22.36
2024-05-09T14:35:39.040Z,22.06
2024-05-09T14:38:08.020Z,21.91
2024-05-09T14:40:41.666Z,22.06
2024-05-09T14:43:13.111Z,22.16
2024-05-09T14:45:41.818Z,21.94
2024-05-09T14:48:10.586Z,21.76
2024-05-09T14:50:40.417Z,21.63
2024-05-09T14:53:11.039Z,21.56
2024-05-09T14:55:41.191Z,21.47
2024-05-09T14:58:11.192Z,21.37
2024-05-09T15:00:45.891Z,21.30
2024-05-09T15:03:21.884Z,21.49
2024-05-09T15:05:51.156Z,21.86
2024-05-09T15:08:20.031Z,21.92
2024-05-09T15:10:50.239Z,21.93
2024-05-09T15:13:19.748Z,22.21
2024-05-09T15:15:48.425Z,22.66
2024-05-09T15:18:17.163Z,23.07
2024-05-09T15:20:46.268Z,23.42
2024-05-09T15:23:14.993Z,23.68
2024-05-09T15:25:44.998Z,23.92
2024-05-09T15:28:12.950Z,24.09
2024-05-09T15:30:42.942Z,24.07
2024-05-09T15:33:14.196Z,23.54
2024-05-09T15:35:42.571Z,23.00
2024-05-09T15:38:10.685Z,22.51
2024-05-09T15:43:25.435Z,21.42
2024-05-09T15:45:54.296Z,21.00
2024-05-09T15:48:22.282Z,20.66
2024-05-09T15:50:50.885Z,20.41
2024-05-09T15:53:19.046Z,20.18
2024-05-09T15:55:46.922Z,19.94
2024-05-09T15:58:18.010Z,19.63
2024-05-09T16:00:48.046Z,19.39
2024-05-09T16:03:17.673Z,19.19
2024-05-09T16:05:46.716Z,19.02
2024-05-09T16:08:15.896Z,18.85
2024-05-09T16:10:46.313Z,18.73
2024-05-09T16:13:16.073Z,18.60
2024-05-09T16:15:44.679Z,18.48
2024-05-09T16:18:12.822Z,18.35
2024-05-09T16:20:43.172Z,18.18
2024-05-09T16:23:12.981Z,18.05
2024-05-09T16:25:45.256Z,17.91
2024-05-09T16:28:13.307Z,17.79
2024-05-09T16:30:41.502Z,17.70
2024-05-09T16:33:11.703Z,17.57
2024-05-09T16:35:40.178Z,17.43
2024-05-09T16:38:08.473Z,17.33
2024-05-09T16:40:40.204Z,17.24
2024-05-09T16:45:59.668Z,17.00
2024-05-09T16:48:27.525Z,16.92
2024-05-09T16:50:55.687Z,16.84
2024-05-09T16:53:25.714Z,16.74
2024-05-09T16:55:53.854Z,16.68
2024-05-09T16:58:22.060Z,16.61
2024-05-09T17:00:50.717Z,16.54
2024-05-09T17:03:21.129Z,16.45
2024-05-09T17:05:50.580Z,16.35
2024-05-09T17:08:19.747Z,16.27
2024-05-09T17:10:50.637Z,16.19
2024-05-09T17:13:19.551Z,16.09
2024-05-09T17:15:49.528Z,15.99
2024-05-09T17:18:18.111Z,15.89
2024-05-09T17:20:46.284Z,15.79
2024-05-09T17:23:14.669Z,15.65
2024-05-09T17:25:42.715Z,15.53
2024-05-09T17:28:11.108Z,15.44
2024-05-09T17:30:41.623Z,15.35
2024-05-09T17:33:12.714Z,15.26
2024-05-09T17:35:41.511Z,15.15
2024-05-09T17:38:09.435Z,15.02
2024-05-09T17:40:45.967Z,14.90
2024-05-09T17:43:13.895Z,14.81
2024-05-09T17:45:42.589Z,14.70
2024-05-09T17:48:11.800Z,14.64
2024-05-09T17:50:41.591Z,14.62
2024-05-09T17:53:13.698Z,14.61
2024-05-09T17:55:41.750Z,14.62
2024-05-09T17:58:10.143Z,14.66
2024-05-09T18:00:41.515Z,14.67
2024-05-09T18:03:12.426Z,14.68
2024-05-09T18:05:44.663Z,14.68
2024-05-09T18:08:13.945Z,14.68
2024-05-09T18:10:42.235Z,14.67
2024-05-09T18:13:12.093Z,14.65
2024-05-09T18:15:41.101Z,14.61
2024-05-09T18:18:10.713Z,14.53
2024-05-09T18:20:43.797Z,14.48
2024-05-09T18:23:16.150Z,14.42
2024-05-09T18:25:45.843Z,14.37
2024-05-09T18:28:14.438Z,14.33
2024-05-09T18:30:43.365Z,14.30
2024-05-09T18:33:12.427Z,14.25
2024-05-09T18:35:44.951Z,14.19
2024-05-09T18:38:13.102Z,14.13
2024-05-09T18:40:43.785Z,14.02
2024-05-09T18:43:14.014Z,13.89
2024-05-09T18:45:42.394Z,13.80
2024-05-09T18:48:16.797Z,13.73
2024-05-09T18:50:45.398Z,13.65
2024-05-09T18:53:14.022Z,13.52
2024-05-09T18:55:42.563Z,13.39
2024-05-09T18:58:11.342Z,13.30
2024-05-09T19:00:41.661Z,13.06
2024-05-09T19:03:14.052Z,12.85
2024-05-09T19:05:44.656Z,12.77
2024-05-09T19:08:15.159Z,12.72
2024-05-09T19:10:45.811Z,12.67
2024-05-09T19:13:14.955Z,12.60
2024-05-09T19:15:44.043Z,12.55
2024-05-09T19:18:13.958Z,12.52
2024-05-09T19:20:43.255Z,12.48
2024-05-09T19:23:11.942Z,12.42
2024-05-09T19:25:40.332Z,12.37
2024-05-09T19:28:08.535Z,12.30
2024-05-09T19:30:40.774Z,12.22
2024-05-09T19:33:14.840Z,12.18
2024-05-09T19:35:45.126Z,12.18
2024-05-09T19:38:13.076Z,12.15
2024-05-09T19:40:41.186Z,12.13
2024-05-09T19:43:09.555Z,12.11
2024-05-09T19:45:37.871Z,12.08
2024-05-09T19:48:06.817Z,12.03
2024-05-09T19:50:41.639Z,11.99
2024-05-09T19:53:13.234Z,11.92
2024-05-09T19:55:41.608Z,11.83
2024-05-09T19:58:09.995Z,11.78
2024-05-09T20:00:40.626Z,11.72
2024-05-09T20:03:14.685Z,11.67
2024-05-09T20:05:47.066Z,11.64
2024-05-09T20:08:15.573Z,11.59
2024-05-09T20:10:43.761Z,11.54
2024-05-09T20:13:15.199Z,11.49
2024-05-09T20:15:43.256Z,11.46
2024-05-09T20:18:11.423Z,11.41
2024-05-09T20:20:42.644Z,11.37
2024-05-09T20:23:12.665Z,11.30
2024-05-09T20:25:41.341Z,11.15
2024-05-09T20:28:09.793Z,11.01
2024-05-09T20:30:38.389Z,10.87
2024-05-09T20:33:08.063Z,10.78
2024-05-09T20:35:37.291Z,10.69
2024-05-09T20:38:05.813Z,10.61
2024-05-09T20:40:37.269Z,10.55
2024-05-09T20:43:10.862Z,10.47
2024-05-09T20:45:40.067Z,10.43
2024-05-09T20:48:09.067Z,10.42
2024-05-09T20:50:40.714Z,10.40
2024-05-09T20:53:12.747Z,10.38
2024-05-09T20:55:42.104Z,10.32
2024-05-09T20:58:10.471Z,10.18
2024-05-09T21:00:42.492Z,10.01
2024-05-09T21:03:14.664Z,9.93
2024-05-09T21:05:44.377Z,9.81
2024-05-09T21:08:12.535Z,9.68
2024-05-09T21:10:40.389Z,9.55
2024-05-09T21:13:08.479Z,9.42
2024-05-09T21:15:36.697Z,9.38
2024-05-09T21:18:05.450Z,9.30
2024-05-09T21:20:34.993Z,9.24
2024-05-09T21:23:03.780Z,9.16
2024-05-09T21:25:32.368Z,9.08
2024-05-09T21:28:01.025Z,8.99
2024-05-09T21:30:38.522Z,8.94
2024-05-09T21:33:12.884Z,8.96
2024-05-09T21:35:43.012Z,8.96
2024-05-09T21:38:13.453Z,8.95
2024-05-09T21:40:42.723Z,8.91
2024-05-09T21:43:11.009Z,8.80
2024-05-09T21:45:38.979Z,8.71
2024-05-09T21:48:07.734Z,8.69
2024-05-09T21:50:40.235Z,8.65
2024-05-09T21:53:11.878Z,8.57
2024-05-09T21:55:40.290Z,8.55
2024-05-09T21:58:08.239Z,8.54
2024-05-09T22:00:39.309Z,8.49
2024-05-09T22:03:09.322Z,8.39
2024-05-09T22:05:39.155Z,8.37
2024-05-09T22:08:07.703Z,8.39
2024-05-09T22:10:36.809Z,8.40
2024-05-09T22:13:06.301Z,8.41
2024-05-09T22:15:35.665Z,8.33
2024-05-09T22:18:05.269Z,8.30
2024-05-09T22:20:37.557Z,8.30
2024-05-09T22:23:08.505Z,8.31
2024-05-09T22:25:38.918Z,8.23
2024-05-09T22:28:07.474Z,8.17
2024-05-09T22:30:39.050Z,8.13
2024-05-09T22:33:08.982Z,8.08
2024-05-09T22:35:38.337Z,8.03
2024-05-09T22:38:06.752Z,7.94
2024-05-09T22:40:45.367Z,7.91
2024-05-09T22:43:21.758Z,7.84
2024-05-09T22:45:55.564Z,7.78
2024-05-09T22:48:25.037Z,7.75
2024-05-09T22:50:53.835Z,7.70
2024-05-09T22:53:23.778Z,7.64
2024-05-09T22:55:51.659Z,7.59
2024-05-09T22:58:20.729Z,7.60
2024-05-09T23:00:48.977Z,7.61
2024-05-09T23:03:18.703Z,7.53
2024-05-09T23:05:47.469Z,7.48
2024-05-09T23:08:15.635Z,7.41
2024-05-09T23:10:43.884Z,7.34
2024-05-09T23:13:11.791Z,7.33
2024-05-09T23:15:39.771Z,7.32
2024-05-09T23:18:08.240Z,7.33
2024-05-09T23:20:39.108Z,7.36
2024-05-09T23:23:08.764Z,7.39
2024-05-09T23:25:37.441Z,7.42
2024-05-09T23:28:06.167Z,7.42
2024-05-09T23:30:38.564Z,7.40
2024-05-09T23:33:10.618Z,7.38
2024-05-09T23:35:40.626Z,7.38
2024-05-09T23:38:08.878Z,7.38
2024-05-09T23:40:39.959Z,7.31
2024-05-09T23:43:10.475Z,7.20
2024-05-09T23:45:39.350Z,7.16
2024-05-09T23:48:07.875Z,7.14
2024-05-09T23:50:38.271Z,7.11
2024-05-09T23:53:09.207Z,7.08
2024-05-09T23:55:38.142Z,7.09
2024-05-09T23:58:06.915Z,7.09
